createdAt,value
2022-09-25T00:03:03.833Z,100893.59
2022-09-25T00:10:43.593Z,100895.38
2022-09-25T00:18:37.832Z,100881.06
2022-09-25T00:26:14.565Z,100875.69
2022-09-25T00:33:48.186Z,100869.41
2022-09-25T00:41:25.837Z,100865.81
2022-09-25T00:49:03.631Z,100864.91
2022-09-25T00:56:43.211Z,100864.91
2022-09-25T01:04:18.314Z,100864.00
2022-09-25T01:11:53.384Z,100863.06
2022-09-25T01:19:43.177Z,100849.63
2022-09-25T01:27:39.339Z,100850.56
2022-09-25T01:35:20.620Z,100852.31
2022-09-25T01:43:00.950Z,100854.13
2022-09-25T01:50:42.600Z,100842.44
2022-09-25T01:58:20.579Z,100844.22
2022-09-25T02:05:59.139Z,100845.13
2022-09-25T02:13:39.257Z,100845.06
2022-09-25T02:21:22.219Z,100829.84
2022-09-25T02:28:56.936Z,100833.44
2022-09-25T02:36:32.385Z,100831.59
2022-09-25T02:44:16.437Z,100833.41
2022-09-25T02:52:01.270Z,100836.03
2022-09-25T02:59:38.192Z,100836.97
2022-09-25T03:07:13.390Z,100834.28
2022-09-25T03:14:47.719Z,100830.72
2022-09-25T03:22:22.760Z,100828.91
2022-09-25T03:29:56.568Z,100825.38
2022-09-25T03:37:32.310Z,100823.50
2022-09-25T03:45:07.436Z,100819.94
2022-09-25T03:52:42.315Z,100820.75
2022-09-25T04:00:16.938Z,100813.50
2022-09-25T04:07:52.009Z,100810.72
2022-09-25T04:15:25.928Z,100798.13
2022-09-25T04:23:01.047Z,100797.22
2022-09-25T04:30:34.960Z,100807.97
2022-09-25T04:38:13.666Z,100814.19
2022-09-25T04:45:48.108Z,100818.69
2022-09-25T04:53:23.972Z,100811.59
2022-09-25T05:01:02.185Z,100808.03
2022-09-25T05:08:37.228Z,100812.50
2022-09-25T05:16:10.782Z,100808.91
2022-09-25T05:23:45.837Z,100811.56
2022-09-25T05:31:19.590Z,100816.91
2022-09-25T05:38:54.816Z,100834.75
2022-09-25T05:46:28.564Z,100830.34
2022-09-25T05:54:03.698Z,100822.31
2022-09-25T06:01:37.303Z,100827.69
2022-09-25T06:09:12.311Z,100825.06
2022-09-25T06:16:48.929Z,100833.09
2022-09-25T06:24:24.249Z,100822.41
2022-09-25T06:31:57.914Z,100818.84
2022-09-25T06:39:33.936Z,100824.22
2022-09-25T06:47:07.596Z,100826.91
2022-09-25T06:54:44.375Z,100839.50
2022-09-25T07:02:35.638Z,100827.94
2022-09-25T07:10:10.914Z,100823.44
2022-09-25T07:17:44.988Z,100822.59
2022-09-25T07:25:20.066Z,100822.69
2022-09-25T07:32:59.191Z,100816.44
2022-09-25T07:40:35.537Z,100824.56
2022-09-25T07:48:10.373Z,100823.75
2022-09-25T07:55:45.720Z,100824.66
2022-09-25T08:03:19.399Z,100811.31
2022-09-25T08:10:55.342Z,100805.97
2022-09-25T08:18:29.087Z,100801.50
2022-09-25T08:26:04.383Z,100801.56
2022-09-25T08:33:38.059Z,100796.22
2022-09-25T08:41:19.145Z,100799.78
2022-09-25T08:49:06.251Z,100802.53
2022-09-25T08:56:41.457Z,100810.59
2022-09-25T09:04:20.316Z,100794.50
2022-09-25T09:12:01.994Z,100795.41
2022-09-25T09:19:35.722Z,100790.03
2022-09-25T09:27:26.949Z,100787.28
2022-09-25T09:35:14.081Z,100787.25
2022-09-25T09:42:59.733Z,100779.13
2022-09-25T09:50:47.192Z,100774.63
2022-09-25T09:58:30.252Z,100764.69
2022-09-25T10:06:09.562Z,100765.59
2022-09-25T10:13:45.731Z,100747.59
2022-09-25T10:21:21.239Z,100750.25
2022-09-25T10:28:57.825Z,100750.16
2022-09-25T10:36:39.491Z,100751.00
2022-09-25T10:44:24.633Z,100754.53
2022-09-25T10:52:05.445Z,100750.91
2022-09-25T10:59:41.480Z,100746.31
2022-09-25T11:07:27.746Z,100743.53
2022-09-25T11:15:05.829Z,100736.25
2022-09-25T11:22:42.200Z,100742.41
2022-09-25T11:30:19.844Z,100724.31
2022-09-25T11:38:09.702Z,100713.38
2022-09-25T11:45:49.717Z,100698.81
2022-09-25T11:53:34.339Z,100698.63
2022-09-25T12:01:22.639Z,100680.44
2022-09-25T12:09:10.176Z,100672.97
2022-09-25T12:16:53.274Z,100673.41
2022-09-25T12:24:40.133Z,100677.03
2022-09-25T12:32:27.313Z,100662.44
2022-09-25T12:40:04.155Z,100666.13
2022-09-25T12:47:45.954Z,100657.03
2022-09-25T12:55:26.085Z,100656.94
2022-09-25T13:03:12.398Z,100658.75
2022-09-25T13:10:51.347Z,100650.56
2022-09-25T13:18:29.375Z,100649.63
2022-09-25T13:26:11.598Z,100643.19
2022-09-25T13:33:50.467Z,100640.31
2022-09-25T13:41:24.329Z,100630.28
2022-09-25T13:49:35.493Z,100624.97
2022-09-25T13:57:10.213Z,100616.91
2022-09-25T14:04:48.616Z,100608.84
2022-09-25T14:12:30.027Z,100607.91
2022-09-25T14:20:11.207Z,100603.34
2022-09-25T14:27:52.485Z,100601.63
2022-09-25T14:35:36.971Z,100588.28
2022-09-25T14:43:41.567Z,100576.69
2022-09-25T14:51:25.667Z,100582.94
2022-09-25T14:59:02.482Z,100579.38
2022-09-25T15:06:39.277Z,100575.81
2022-09-25T15:14:20.796Z,100578.59
2022-09-25T15:21:55.920Z,100570.66
2022-09-25T15:29:31.079Z,100578.06
2022-09-25T15:37:18.803Z,100578.13
2022-09-25T15:44:54.170Z,100569.09
2022-09-25T15:52:34.020Z,100560.09
2022-09-25T16:00:28.123Z,100569.22
2022-09-25T16:08:29.263Z,100554.09
2022-09-25T16:16:03.134Z,100558.78
2022-09-25T16:23:40.006Z,100557.22
2022-09-25T16:31:13.776Z,100557.38
2022-09-25T16:39:14.525Z,100553.84
2022-09-25T16:47:06.953Z,100565.69
2022-09-25T16:54:42.580Z,100567.59
2022-09-25T17:02:25.749Z,100564.03
2022-09-25T17:10:01.649Z,100552.44
2022-09-25T17:17:35.400Z,100544.38
2022-09-25T17:25:22.060Z,100537.31
2022-09-25T17:32:55.719Z,100550.97
2022-09-25T17:40:33.277Z,100558.22
2022-09-25T17:48:07.187Z,100552.97
2022-09-25T17:55:42.264Z,100549.47
2022-09-25T18:03:16.777Z,100555.97
2022-09-25T18:10:54.659Z,100565.03
2022-09-25T18:18:49.612Z,100559.81
2022-09-25T18:26:29.062Z,100559.88
2022-09-25T18:34:04.786Z,100553.66
2022-09-25T18:41:42.017Z,100551.88
2022-09-25T18:49:15.761Z,100553.78
2022-09-25T18:56:51.201Z,100561.03
2022-09-25T19:04:25.876Z,100567.38
2022-09-25T19:12:01.106Z,100550.34
2022-09-25T19:19:36.220Z,100556.69
2022-09-25T19:27:12.091Z,100562.09
2022-09-25T19:34:45.792Z,100549.53
2022-09-25T19:42:21.147Z,100533.41
2022-09-25T19:49:54.803Z,100538.03
2022-09-25T19:57:29.970Z,100542.50
2022-09-25T20:05:05.977Z,100539.84
2022-09-25T20:12:41.127Z,100535.38
2022-09-25T20:20:16.092Z,100534.53
2022-09-25T20:27:52.173Z,100531.94
2022-09-25T20:35:25.840Z,100523.88
2022-09-25T20:43:00.945Z,100526.59
2022-09-25T20:50:37.090Z,100517.66
2022-09-25T20:58:11.918Z,100524.00
2022-09-25T21:05:46.614Z,100522.25
2022-09-25T21:13:21.890Z,100511.47
2022-09-25T21:21:00.427Z,100500.78
2022-09-25T21:28:35.495Z,100491.84
2022-09-25T21:36:10.701Z,100490.09
2022-09-25T21:43:46.114Z,100484.75
2022-09-25T21:51:21.645Z,100481.19
2022-09-25T21:58:57.814Z,100474.03
2022-09-25T22:06:34.189Z,100471.38
2022-09-25T22:14:15.417Z,100475.88
2022-09-25T22:21:51.384Z,100477.66
2022-09-25T22:29:26.520Z,100491.97
2022-09-25T22:37:00.583Z,100474.06
2022-09-25T22:44:35.732Z,100466.94
2022-09-25T22:52:09.430Z,100459.78
2022-09-25T22:59:44.442Z,100465.16
2022-09-25T23:07:17.940Z,100454.44
2022-09-25T23:14:53.980Z,100454.44
2022-09-25T23:22:27.653Z,100450.84
2022-09-25T23:30:02.702Z,100447.25
2022-09-25T23:37:36.399Z,100445.44
2022-09-25T23:45:12.866Z,100440.06
2022-09-25T23:52:46.575Z,100438.31
